sensor_id;sensor_type;location;lat;lon;timestamp;pressure;altitude;pressure_sealevel;temperature;humidity
77263;BME280;66373;52.334;4.806;2023-12-14T00:02:08;100978.78;;;18.56;58.29
77263;BME280;66373;52.334;4.806;2023-12-14T00:04:35;100976.22;;;18.54;58.01
77263;BME280;66373;52.334;4.806;2023-12-14T00:07:04;100977.09;;;18.53;58.24
77263;BME280;66373;52.334;4.806;2023-12-14T00:09:31;100981.41;;;18.54;58.11
77263;BME280;66373;52.334;4.806;2023-12-14T00:11:58;100989.22;;;18.54;58.02
77263;BME280;66373;52.334;4.806;2023-12-14T00:14:25;100992.78;;;18.50;57.90
77263;BME280;66373;52.334;4.806;2023-12-14T00:16:52;101001.44;;;18.52;58.07
77263;BME280;66373;52.334;4.806;2023-12-14T00:19:19;100997.97;;;18.52;58.15
77263;BME280;66373;52.334;4.806;2023-12-14T00:21:46;101008.34;;;18.53;57.78
77263;BME280;66373;52.334;4.806;2023-12-14T00:24:15;101013.59;;;18.52;57.98
77263;BME280;66373;52.334;4.806;2023-12-14T00:26:42;101022.28;;;18.52;58.21
77263;BME280;66373;52.334;4.806;2023-12-14T00:29:09;101019.75;;;18.48;58.05
77263;BME280;66373;52.334;4.806;2023-12-14T00:31:36;101029.25;;;18.50;58.26
77263;BME280;66373;52.334;4.806;2023-12-14T00:34:03;101030.13;;;18.49;57.96
77263;BME280;66373;52.334;4.806;2023-12-14T00:36:32;101040.59;;;18.48;58.38
77263;BME280;66373;52.334;4.806;2023-12-14T00:38:59;101041.44;;;18.48;58.37
77263;BME280;66373;52.334;4.806;2023-12-14T00:41:27;101054.47;;;18.48;58.16
77263;BME280;66373;52.334;4.806;2023-12-14T00:43:55;101052.75;;;18.47;58.14
77263;BME280;66373;52.334;4.806;2023-12-14T00:46:22;101064.91;;;18.47;57.82
77263;BME280;66373;52.334;4.806;2023-12-14T00:48:49;101069.28;;;18.46;57.82
77263;BME280;66373;52.334;4.806;2023-12-14T00:51:16;101071.06;;;18.44;57.91
77263;BME280;66373;52.334;4.806;2023-12-14T00:53:43;101075.38;;;18.45;57.81
77263;BME280;66373;52.334;4.806;2023-12-14T00:56:10;101073.72;;;18.43;58.06
77263;BME280;66373;52.334;4.806;2023-12-14T00:58:39;101091.00;;;18.45;57.72
77263;BME280;66373;52.334;4.806;2023-12-14T01:01:06;101086.69;;;18.44;57.95
77263;BME280;66373;52.334;4.806;2023-12-14T01:03:33;101100.63;;;18.43;58.03
77263;BME280;66373;52.334;4.806;2023-12-14T01:06:00;101109.31;;;18.42;57.83
77263;BME280;66373;52.334;4.806;2023-12-14T01:08:27;101110.19;;;18.43;57.71
77263;BME280;66373;52.334;4.806;2023-12-14T01:10:54;101115.38;;;18.43;57.95
77263;BME280;66373;52.334;4.806;2023-12-14T01:13:21;101108.44;;;18.42;57.91
77263;BME280;66373;52.334;4.806;2023-12-14T01:15:50;101120.63;;;18.41;57.96
77263;BME280;66373;52.334;4.806;2023-12-14T01:18:17;101123.28;;;18.38;57.86
77263;BME280;66373;52.334;4.806;2023-12-14T01:20:44;101130.19;;;18.41;57.67
77263;BME280;66373;52.334;4.806;2023-12-14T01:23:12;101125.84;;;18.40;57.72
77263;BME280;66373;52.334;4.806;2023-12-14T01:25:39;101131.91;;;18.40;57.59
77263;BME280;66373;52.334;4.806;2023-12-14T01:28:06;101132.81;;;18.39;57.62
77263;BME280;66373;52.334;4.806;2023-12-14T01:30:34;101140.63;;;18.39;57.65
77263;BME280;66373;52.334;4.806;2023-12-14T01:33:02;101141.53;;;18.37;57.76
77263;BME280;66373;52.334;4.806;2023-12-14T01:35:30;101149.31;;;18.38;57.90
77263;BME280;66373;52.334;4.806;2023-12-14T01:37:57;101160.63;;;18.37;57.84
77263;BME280;66373;52.334;4.806;2023-12-14T01:40:24;101159.75;;;18.37;57.86
77263;BME280;66373;52.334;4.806;2023-12-14T01:42:51;101166.72;;;18.36;57.88
77263;BME280;66373;52.334;4.806;2023-12-14T01:45:18;101159.78;;;18.35;57.96
77263;BME280;66373;52.334;4.806;2023-12-14T01:47:45;101171.97;;;18.33;57.78
77263;BME280;66373;52.334;4.806;2023-12-14T01:50:14;101173.72;;;18.33;57.93
77263;BME280;66373;52.334;4.806;2023-12-14T01:52:41;101177.16;;;18.35;57.68
77263;BME280;66373;52.334;4.806;2023-12-14T01:55:08;101179.78;;;18.33;57.92
77263;BME280;66373;52.334;4.806;2023-12-14T01:57:35;101187.59;;;18.33;57.78
77263;BME280;66373;52.334;4.806;2023-12-14T02:00:03;101193.72;;;18.30;57.80
77263;BME280;66373;52.334;4.806;2023-12-14T02:02:31;101195.44;;;18.31;57.87
77263;BME280;66373;52.334;4.806;2023-12-14T02:04:58;101200.66;;;18.31;57.72
77263;BME280;66373;52.334;4.806;2023-12-14T02:07:27;101210.19;;;18.31;57.45
77263;BME280;66373;52.334;4.806;2023-12-14T02:09:54;101212.81;;;18.31;57.65
77263;BME280;66373;52.334;4.806;2023-12-14T02:12:21;101208.47;;;18.30;57.69
77263;BME280;66373;52.334;4.806;2023-12-14T02:14:48;101217.19;;;18.29;57.64
77263;BME280;66373;52.334;4.806;2023-12-14T02:17:16;101222.38;;;18.29;57.82
77263;BME280;66373;52.334;4.806;2023-12-14T02:19:43;101232.81;;;18.29;57.81
77263;BME280;66373;52.334;4.806;2023-12-14T02:22:10;101237.16;;;18.28;57.80
77263;BME280;66373;52.334;4.806;2023-12-14T02:24:38;101230.22;;;18.27;57.69
77263;BME280;66373;52.334;4.806;2023-12-14T02:27:05;101241.50;;;18.28;57.45
77263;BME280;66373;52.334;4.806;2023-12-14T02:29:32;101246.72;;;18.26;57.44
77263;BME280;66373;52.334;4.806;2023-12-14T02:31:59;101254.53;;;18.26;57.41
77263;BME280;66373;52.334;4.806;2023-12-14T02:34:26;101257.16;;;18.25;57.50
77263;BME280;66373;52.334;4.806;2023-12-14T02:36:54;101256.31;;;18.24;57.54
77263;BME280;66373;52.334;4.806;2023-12-14T02:39:21;101266.72;;;18.24;57.25
77263;BME280;66373;52.334;4.806;2023-12-14T02:41:51;101276.28;;;18.24;57.86
77263;BME280;66373;52.334;4.806;2023-12-14T02:44:19;101271.06;;;18.24;57.22
77263;BME280;66373;52.334;4.806;2023-12-14T02:46:46;101271.06;;;18.24;57.73
77263;BME280;66373;52.334;4.806;2023-12-14T02:49:13;101265.91;;;18.21;57.71
77263;BME280;66373;52.334;4.806;2023-12-14T02:51:40;101270.22;;;18.22;57.51
77263;BME280;66373;52.334;4.806;2023-12-14T02:54:07;101280.66;;;18.22;57.70
77263;BME280;66373;52.334;4.806;2023-12-14T02:56:34;101280.66;;;18.22;57.43
77263;BME280;66373;52.334;4.806;2023-12-14T02:59:03;101276.31;;;18.21;57.69
77263;BME280;66373;52.334;4.806;2023-12-14T03:01:30;101278.06;;;18.20;57.37
77263;BME280;66373;52.334;4.806;2023-12-14T03:03:57;101278.94;;;18.19;57.34
77263;BME280;66373;52.334;4.806;2023-12-14T03:06:24;101277.19;;;18.20;57.37
77263;BME280;66373;52.334;4.806;2023-12-14T03:08:51;101278.13;;;18.19;57.46
77263;BME280;66373;52.334;4.806;2023-12-14T03:11:21;101274.72;;;18.14;57.75
77263;BME280;66373;52.334;4.806;2023-12-14T03:13:49;101285.09;;;18.17;57.45
77263;BME280;66373;52.334;4.806;2023-12-14T03:16:18;101285.09;;;18.17;57.47
77263;BME280;66373;52.334;4.806;2023-12-14T03:18:45;101292.03;;;18.16;57.40
77263;BME280;66373;52.334;4.806;2023-12-14T03:21:12;101290.28;;;18.17;57.62
77263;BME280;66373;52.334;4.806;2023-12-14T03:23:39;101290.28;;;18.17;57.52
77263;BME280;66373;52.334;4.806;2023-12-14T03:26:06;101293.78;;;18.16;57.49
77263;BME280;66373;52.334;4.806;2023-12-14T03:28:33;101298.97;;;18.16;57.44
77263;BME280;66373;52.334;4.806;2023-12-14T03:31:00;101298.97;;;18.16;57.58
77263;BME280;66373;52.334;4.806;2023-12-14T03:33:29;101291.19;;;18.16;57.51
77263;BME280;66373;52.334;4.806;2023-12-14T03:35:56;101297.25;;;18.15;57.47
77263;BME280;66373;52.334;4.806;2023-12-14T03:38:23;101296.38;;;18.16;57.48
77263;BME280;66373;52.334;4.806;2023-12-14T03:40:50;101286.88;;;18.13;57.62
77263;BME280;66373;52.334;4.806;2023-12-14T03:43:19;101295.53;;;18.14;57.67
77263;BME280;66373;52.334;4.806;2023-12-14T03:45:46;101299.03;;;18.13;57.35
77263;BME280;66373;52.334;4.806;2023-12-14T03:48:13;101305.94;;;18.14;57.48
77263;BME280;66373;52.334;4.806;2023-12-14T03:50:41;101305.94;;;18.14;57.43
77263;BME280;66373;52.334;4.806;2023-12-14T03:53:09;101307.69;;;18.13;57.45
77263;BME280;66373;52.334;4.806;2023-12-14T03:55:36;101319.84;;;18.13;57.63
77263;BME280;66373;52.334;4.806;2023-12-14T03:58:03;101317.25;;;18.13;57.25
77263;BME280;66373;52.334;4.806;2023-12-14T04:00:30;101318.13;;;18.12;57.23
77263;BME280;66373;52.334;4.806;2023-12-14T04:02:57;101327.69;;;18.11;57.33
77263;BME280;66373;52.334;4.806;2023-12-14T04:05:24;101315.53;;;18.10;57.45
77263;BME280;66373;52.334;4.806;2023-12-14T04:07:52;101325.09;;;18.10;57.29
77263;BME280;66373;52.334;4.806;2023-12-14T04:10:19;101336.38;;;18.10;57.56
77263;BME280;66373;52.334;4.806;2023-12-14T04:12:46;101325.09;;;18.10;57.24
77263;BME280;66373;52.334;4.806;2023-12-14T04:15:13;101343.31;;;18.10;57.35
77263;BME280;66373;52.334;4.806;2023-12-14T04:17:41;101345.06;;;18.09;57.15
77263;BME280;66373;52.334;4.806;2023-12-14T04:20:09;101353.78;;;18.07;57.31
77263;BME280;66373;52.334;4.806;2023-12-14T04:22:36;101361.53;;;18.10;57.29
77263;BME280;66373;52.334;4.806;2023-12-14T04:25:05;101365.91;;;18.09;57.31
77263;BME280;66373;52.334;4.806;2023-12-14T04:27:33;101367.63;;;18.09;57.11
77263;BME280;66373;52.334;4.806;2023-12-14T04:30:00;101376.31;;;18.08;57.17
77263;BME280;66373;52.334;4.806;2023-12-14T04:32:27;101373.72;;;18.08;57.28
77263;BME280;66373;52.334;4.806;2023-12-14T04:34:54;101389.34;;;18.08;57.09
77263;BME280;66373;52.334;4.806;2023-12-14T04:37:21;101382.41;;;18.07;57.27
77263;BME280;66373;52.334;4.806;2023-12-14T04:39:48;101399.75;;;18.08;57.05
77263;BME280;66373;52.334;4.806;2023-12-14T04:42:18;101406.69;;;18.07;57.21
77263;BME280;66373;52.334;4.806;2023-12-14T04:44:45;101395.53;;;17.97;57.29
77263;BME280;66373;52.334;4.806;2023-12-14T04:47:12;101412.78;;;18.06;57.10
77263;BME280;66373;52.334;4.806;2023-12-14T04:49:39;101414.59;;;18.00;57.25
77263;BME280;66373;52.334;4.806;2023-12-14T04:52:06;101423.19;;;18.06;57.21
77263;BME280;66373;52.334;4.806;2023-12-14T04:54:34;101437.13;;;18.02;57.08
77263;BME280;66373;52.334;4.806;2023-12-14T04:57:04;101442.31;;;18.05;57.21
77263;BME280;66373;52.334;4.806;2023-12-14T04:59:32;101457.94;;;18.05;57.17
77263;BME280;66373;52.334;4.806;2023-12-14T05:01:59;101459.66;;;18.05;57.02
77263;BME280;66373;52.334;4.806;2023-12-14T05:04:27;101456.19;;;18.04;57.02
77263;BME280;66373;52.334;4.806;2023-12-14T05:06:54;101464.00;;;18.04;56.92
77263;BME280;66373;52.334;4.806;2023-12-14T05:09:21;101465.75;;;18.04;56.66
77263;BME280;66373;52.334;4.806;2023-12-14T05:11:48;101470.06;;;18.05;57.08
77263;BME280;66373;52.334;4.806;2023-12-14T05:14:15;101460.53;;;18.04;56.84
77263;BME280;66373;52.334;4.806;2023-12-14T05:16:43;101469.22;;;18.03;56.97
77263;BME280;66373;52.334;4.806;2023-12-14T05:19:11;101474.44;;;18.03;57.14
77263;BME280;66373;52.334;4.806;2023-12-14T05:21:38;101470.97;;;18.02;56.90
77263;BME280;66373;52.334;4.806;2023-12-14T05:24:06;101475.31;;;18.02;56.96
77263;BME280;66373;52.334;4.806;2023-12-14T05:26:33;101484.84;;;18.03;56.82
77263;BME280;66373;52.334;4.806;2023-12-14T05:29:00;101478.81;;;17.99;56.81
77263;BME280;66373;52.334;4.806;2023-12-14T05:31:27;101482.25;;;18.01;57.05
77263;BME280;66373;52.334;4.806;2023-12-14T05:33:55;101491.81;;;18.01;56.99
77263;BME280;66373;52.334;4.806;2023-12-14T05:36:22;101490.09;;;17.98;56.72
77263;BME280;66373;52.334;4.806;2023-12-14T05:38:53;101499.59;;;18.02;56.74
77263;BME280;66373;52.334;4.806;2023-12-14T05:41:20;101505.69;;;18.03;57.01
77263;BME280;66373;52.334;4.806;2023-12-14T05:43:47;101509.16;;;18.02;56.70
77263;BME280;66373;52.334;4.806;2023-12-14T05:46:20;101507.44;;;18.01;56.67
77263;BME280;66373;52.334;4.806;2023-12-14T05:48:48;101508.28;;;18.01;56.66
77263;BME280;66373;52.334;4.806;2023-12-14T05:51:27;101510.06;;;17.99;56.79
77263;BME280;66373;52.334;4.806;2023-12-14T05:53:54;101508.28;;;18.01;56.72
77263;BME280;66373;52.334;4.806;2023-12-14T05:56:21;101517.84;;;18.01;56.75
77263;BME280;66373;52.334;4.806;2023-12-14T05:58:49;101525.66;;;18.01;56.59
77263;BME280;66373;52.334;4.806;2023-12-14T06:01:16;101531.75;;;18.00;56.98
77263;BME280;66373;52.334;4.806;2023-12-14T06:03:44;101540.41;;;18.00;56.91
77263;BME280;66373;52.334;4.806;2023-12-14T06:06:12;101543.88;;;18.01;56.90
77263;BME280;66373;52.334;4.806;2023-12-14T06:08:41;101548.22;;;18.02;56.90
77263;BME280;66373;52.334;4.806;2023-12-14T06:11:08;101540.41;;;17.98;57.22
77263;BME280;66373;52.334;4.806;2023-12-14T06:13:35;101544.72;;;18.03;57.56
77263;BME280;66373;52.334;4.806;2023-12-14T06:16:03;101545.56;;;18.05;57.59
77263;BME280;66373;52.334;4.806;2023-12-14T06:18:32;101543.84;;;18.04;57.54
77263;BME280;66373;52.334;4.806;2023-12-14T06:20:59;101547.31;;;18.06;57.44
77263;BME280;66373;52.334;4.806;2023-12-14T06:23:26;101561.16;;;18.08;58.15
77263;BME280;66373;52.334;4.806;2023-12-14T06:25:55;101558.56;;;18.08;58.58
77263;BME280;66373;52.334;4.806;2023-12-14T06:28:22;101561.19;;;18.05;58.48
77263;BME280;66373;52.334;4.806;2023-12-14T06:30:49;101572.47;;;18.07;57.52
77263;BME280;66373;52.334;4.806;2023-12-14T06:33:16;101573.34;;;18.06;57.28
77263;BME280;66373;52.334;4.806;2023-12-14T06:35:43;101582.03;;;18.05;57.13
77263;BME280;66373;52.334;4.806;2023-12-14T06:38:10;101594.19;;;18.04;57.24
77263;BME280;66373;52.334;4.806;2023-12-14T06:40:38;101595.94;;;18.01;57.10
77263;BME280;66373;52.334;4.806;2023-12-14T06:43:07;101595.94;;;18.02;57.08
77263;BME280;66373;52.334;4.806;2023-12-14T06:45:36;101604.66;;;17.96;57.14
77263;BME280;66373;52.334;4.806;2023-12-14T06:48:04;101606.34;;;18.01;57.30
77263;BME280;66373;52.334;4.806;2023-12-14T06:50:31;101610.72;;;17.97;57.29
77263;BME280;66373;52.334;4.806;2023-12-14T06:52:58;101623.72;;;17.98;57.33
77263;BME280;66373;52.334;4.806;2023-12-14T06:55:25;101631.53;;;17.98;57.21
77263;BME280;66373;52.334;4.806;2023-12-14T06:57:52;101635.00;;;17.97;57.31
77263;BME280;66373;52.334;4.806;2023-12-14T07:00:21;101630.69;;;17.96;57.34
77263;BME280;66373;52.334;4.806;2023-12-14T07:02:48;101635.88;;;17.96;57.31
77263;BME280;66373;52.334;4.806;2023-12-14T07:05:17;101635.88;;;17.96;57.14
77263;BME280;66373;52.334;4.806;2023-12-14T07:07:44;101640.22;;;17.96;57.02
77263;BME280;66373;52.334;4.806;2023-12-14T07:10:11;101639.38;;;17.95;57.15
77263;BME280;66373;52.334;4.806;2023-12-14T07:12:38;101641.97;;;17.95;57.05
77263;BME280;66373;52.334;4.806;2023-12-14T07:15:06;101639.38;;;17.95;57.11
77263;BME280;66373;52.334;4.806;2023-12-14T07:17:35;101654.13;;;17.95;57.27
77263;BME280;66373;52.334;4.806;2023-12-14T07:20:02;101642.84;;;17.94;56.92
77263;BME280;66373;52.334;4.806;2023-12-14T07:22:29;101653.25;;;17.94;56.92
77263;BME280;66373;52.334;4.806;2023-12-14T07:24:56;101653.25;;;17.94;57.05
77263;BME280;66373;52.334;4.806;2023-12-14T07:27:23;101655.00;;;17.94;57.34
77263;BME280;66373;52.334;4.806;2023-12-14T07:29:50;101663.66;;;17.94;57.22
77263;BME280;66373;52.334;4.806;2023-12-14T07:32:17;101656.72;;;17.93;57.20
77263;BME280;66373;52.334;4.806;2023-12-14T07:34:46;101663.66;;;17.94;57.47
77263;BME280;66373;52.334;4.806;2023-12-14T07:37:13;101663.66;;;17.94;57.58
77263;BME280;66373;52.334;4.806;2023-12-14T07:39:40;101659.31;;;17.95;57.59
77263;BME280;66373;52.334;4.806;2023-12-14T07:42:07;101666.25;;;17.96;57.50
77263;BME280;66373;52.334;4.806;2023-12-14T07:44:34;101663.66;;;17.94;57.76
77263;BME280;66373;52.334;4.806;2023-12-14T07:47:03;101665.41;;;17.95;57.76
77263;BME280;66373;52.334;4.806;2023-12-14T07:49:31;101681.88;;;17.96;57.20
77263;BME280;66373;52.334;4.806;2023-12-14T07:52:00;101677.53;;;17.95;57.18
77263;BME280;66373;52.334;4.806;2023-12-14T07:54:27;101674.94;;;17.95;57.15
77263;BME280;66373;52.334;4.806;2023-12-14T07:56:55;101676.69;;;17.94;57.25
77263;BME280;66373;52.334;4.806;2023-12-14T07:59:22;101677.56;;;17.93;56.94
77263;BME280;66373;52.334;4.806;2023-12-14T08:01:49;101667.19;;;17.90;57.37
77263;BME280;66373;52.334;4.806;2023-12-14T08:04:16;101670.66;;;17.92;56.97
77263;BME280;66373;52.334;4.806;2023-12-14T08:06:43;101678.47;;;17.92;57.14
77263;BME280;66373;52.334;4.806;2023-12-14T08:09:12;101685.41;;;17.92;57.02
77263;BME280;66373;52.334;4.806;2023-12-14T08:11:39;101685.38;;;17.93;57.03
77263;BME280;66373;52.334;4.806;2023-12-14T08:14:06;101697.50;;;17.93;56.92
77263;BME280;66373;52.334;4.806;2023-12-14T08:16:33;101694.91;;;17.93;56.90
77263;BME280;66373;52.334;4.806;2023-12-14T08:19:00;101694.91;;;17.93;56.99
77263;BME280;66373;52.334;4.806;2023-12-14T08:21:27;101693.16;;;17.93;57.18
77263;BME280;66373;52.334;4.806;2023-12-14T08:23:54;101706.19;;;17.95;56.96
77263;BME280;66373;52.334;4.806;2023-12-14T08:26:22;101714.84;;;17.95;56.89
77263;BME280;66373;52.334;4.806;2023-12-14T08:28:49;101717.47;;;17.95;56.87
77263;BME280;66373;52.334;4.806;2023-12-14T08:31:16;101729.59;;;17.96;56.84
77263;BME280;66373;52.334;4.806;2023-12-14T08:33:43;101729.59;;;17.96;56.67
77263;BME280;66373;52.334;4.806;2023-12-14T08:36:15;101735.66;;;17.97;56.72
77263;BME280;66373;52.334;4.806;2023-12-14T08:38:42;101737.41;;;17.98;56.81
77263;BME280;66373;52.334;4.806;2023-12-14T08:41:12;101748.69;;;17.98;56.67
77263;BME280;66373;52.334;4.806;2023-12-14T08:43:41;101741.75;;;17.97;56.61
77263;BME280;66373;52.334;4.806;2023-12-14T08:46:08;101746.94;;;17.97;56.54
77263;BME280;66373;52.334;4.806;2023-12-14T08:48:35;101758.22;;;18.01;56.76
77263;BME280;66373;52.334;4.806;2023-12-14T08:51:03;101769.50;;;18.02;56.52
77263;BME280;66373;52.334;4.806;2023-12-14T08:53:31;101769.50;;;18.02;56.71
77263;BME280;66373;52.334;4.806;2023-12-14T08:55:58;101775.56;;;18.02;56.45
77263;BME280;66373;52.334;4.806;2023-12-14T08:58:25;101787.69;;;18.05;56.46
77263;BME280;66373;52.334;4.806;2023-12-14T09:00:53;101791.16;;;18.07;56.56
77263;BME280;66373;52.334;4.806;2023-12-14T09:03:21;101798.97;;;18.10;56.63
77263;BME280;66373;52.334;4.806;2023-12-14T09:05:48;101809.38;;;18.10;56.37
77263;BME280;66373;52.334;4.806;2023-12-14T09:08:15;101820.66;;;18.10;56.62
77263;BME280;66373;52.334;4.806;2023-12-14T09:10:42;101819.78;;;18.13;56.28
77263;BME280;66373;52.334;4.806;2023-12-14T09:13:10;101821.50;;;18.14;56.23
77263;BME280;66373;52.334;4.806;2023-12-14T09:15:37;101820.63;;;18.15;56.54
77263;BME280;66373;52.334;4.806;2023-12-14T09:18:05;101828.44;;;18.18;56.34
77263;BME280;66373;52.334;4.806;2023-12-14T09:20:32;101831.91;;;18.18;56.70
77263;BME280;66373;52.334;4.806;2023-12-14T09:23:00;101823.22;;;18.15;56.42
77263;BME280;66373;52.334;4.806;2023-12-14T09:25:27;101828.38;;;18.21;56.39
77263;BME280;66373;52.334;4.806;2023-12-14T09:27:55;101821.44;;;18.23;56.50
77263;BME280;66373;52.334;4.806;2023-12-14T09:30:22;101830.09;;;18.25;56.47
77263;BME280;66373;52.334;4.806;2023-12-14T09:32:49;101831.81;;;18.26;56.08
77263;BME280;66373;52.334;4.806;2023-12-14T09:35:17;101835.28;;;18.28;56.29
77263;BME280;66373;52.334;4.806;2023-12-14T09:37:44;101845.72;;;18.28;56.34
77263;BME280;66373;52.334;4.806;2023-12-14T09:40:12;101847.44;;;18.30;56.18
77263;BME280;66373;52.334;4.806;2023-12-14T09:42:40;101854.38;;;18.31;56.17
77263;BME280;66373;52.334;4.806;2023-12-14T09:45:08;101850.03;;;18.34;56.27
77263;BME280;66373;52.334;4.806;2023-12-14T09:47:35;101863.03;;;18.35;56.30
77263;BME280;66373;52.334;4.806;2023-12-14T09:50:04;101866.50;;;18.36;56.42
77263;BME280;66373;52.334;4.806;2023-12-14T09:52:33;101865.63;;;18.37;56.21
77263;BME280;66373;52.334;4.806;2023-12-14T09:55:00;101866.50;;;18.36;56.20
77263;BME280;66373;52.334;4.806;2023-12-14T09:57:31;101871.69;;;18.39;56.10
77263;BME280;66373;52.334;4.806;2023-12-14T09:59:59;101863.91;;;18.36;56.31
77263;BME280;66373;52.334;4.806;2023-12-14T10:02:26;101874.31;;;18.37;56.04
77263;BME280;66373;52.334;4.806;2023-12-14T10:04:53;101870.84;;;18.37;56.31
77263;BME280;66373;52.334;4.806;2023-12-14T10:07:21;101877.78;;;18.41;56.20
77263;BME280;66373;52.334;4.806;2023-12-14T10:09:50;101877.75;;;18.44;55.85
77263;BME280;66373;52.334;4.806;2023-12-14T10:12:18;101871.69;;;18.43;56.37
77263;BME280;66373;52.334;4.806;2023-12-14T10:14:47;101882.94;;;18.45;56.23
77263;BME280;66373;52.334;4.806;2023-12-14T10:17:26;101887.25;;;18.46;56.16
77263;BME280;66373;52.334;4.806;2023-12-14T10:20:00;101890.72;;;18.48;56.09
77263;BME280;66373;52.334;4.806;2023-12-14T10:22:30;101894.19;;;18.50;56.07
77263;BME280;66373;52.334;4.806;2023-12-14T10:24:59;101889.84;;;18.52;55.77
77263;BME280;66373;52.334;4.806;2023-12-14T10:27:27;101893.28;;;18.56;56.03
77263;BME280;66373;52.334;4.806;2023-12-14T10:29:55;101888.97;;;18.53;55.95
77263;BME280;66373;52.334;4.806;2023-12-14T10:32:23;101894.19;;;18.59;56.06
77263;BME280;66373;52.334;4.806;2023-12-14T10:34:50;101897.63;;;18.61;55.66
77263;BME280;66373;52.334;4.806;2023-12-14T10:37:18;101897.63;;;18.64;56.00
77263;BME280;66373;52.334;4.806;2023-12-14T10:39:49;101900.22;;;18.64;56.04
77263;BME280;66373;52.334;4.806;2023-12-14T10:42:21;101892.38;;;18.68;55.95
77263;BME280;66373;52.334;4.806;2023-12-14T10:44:51;101891.50;;;18.70;55.90
77263;BME280;66373;52.334;4.806;2023-12-14T10:47:19;101892.38;;;18.71;55.34
77263;BME280;66373;52.334;4.806;2023-12-14T10:49:50;101892.31;;;18.77;55.83
77263;BME280;66373;52.334;4.806;2023-12-14T10:52:18;101897.50;;;18.77;55.59
77263;BME280;66373;52.334;4.806;2023-12-14T10:54:47;101895.75;;;18.79;55.73
77263;BME280;66373;52.334;4.806;2023-12-14T10:57:16;101898.38;;;18.80;55.82
77263;BME280;66373;52.334;4.806;2023-12-14T10:59:44;101907.91;;;18.83;55.82
77263;BME280;66373;52.334;4.806;2023-12-14T11:02:15;101904.41;;;18.87;55.49
77263;BME280;66373;52.334;4.806;2023-12-14T11:04:57;101909.63;;;18.87;55.67
77263;BME280;66373;52.334;4.806;2023-12-14T11:07:44;101912.19;;;18.90;55.71
77263;BME280;66373;52.334;4.806;2023-12-14T11:10:12;101911.31;;;18.94;55.83
77263;BME280;66373;52.334;4.806;2023-12-14T11:12:51;101906.97;;;18.91;55.81
77263;BME280;66373;52.334;4.806;2023-12-14T11:15:21;101926.03;;;18.98;55.45
77263;BME280;66373;52.334;4.806;2023-12-14T11:18:23;101920.78;;;18.99;55.54
77263;BME280;66373;52.334;4.806;2023-12-14T11:20:54;101928.59;;;19.04;55.74
77263;BME280;66373;52.334;4.806;2023-12-14T11:23:30;101926.84;;;19.06;55.74
77263;BME280;66373;52.334;4.806;2023-12-14T11:25:59;101925.09;;;19.08;55.54
77263;BME280;66373;52.334;4.806;2023-12-14T11:28:29;101929.41;;;19.11;55.78
77263;BME280;66373;52.334;4.806;2023-12-14T11:30:58;101933.75;;;19.13;55.70
77263;BME280;66373;52.334;4.806;2023-12-14T11:33:25;101926.78;;;19.15;55.18
77263;BME280;66373;52.334;4.806;2023-12-14T11:35:54;101928.50;;;19.16;55.66
77263;BME280;66373;52.334;4.806;2023-12-14T11:38:22;101935.44;;;19.20;55.35
77263;BME280;66373;52.334;4.806;2023-12-14T11:40:49;101938.91;;;19.22;55.09
77263;BME280;66373;52.334;4.806;2023-12-14T11:43:17;101949.28;;;19.25;55.50
77263;BME280;66373;52.334;4.806;2023-12-14T11:45:46;101947.53;;;19.27;55.54
77263;BME280;66373;52.334;4.806;2023-12-14T11:48:14;101948.34;;;19.32;55.22
77263;BME280;66373;52.334;4.806;2023-12-14T11:50:42;101949.19;;;19.36;55.15
77263;BME280;66373;52.334;4.806;2023-12-14T11:53:10;101945.69;;;19.37;55.10
77263;BME280;66373;52.334;4.806;2023-12-14T11:55:39;101954.34;;;19.42;55.10
77263;BME280;66373;52.334;4.806;2023-12-14T11:58:06;101952.63;;;19.43;54.83
77263;BME280;66373;52.334;4.806;2023-12-14T12:00:34;101955.19;;;19.47;54.66
77263;BME280;66373;52.334;4.806;2023-12-14T12:03:09;101964.72;;;19.50;55.13
77263;BME280;66373;52.334;4.806;2023-12-14T12:05:40;101964.72;;;19.53;54.91
77263;BME280;66373;52.334;4.806;2023-12-14T12:08:08;101968.19;;;19.55;54.54
77263;BME280;66373;52.334;4.806;2023-12-14T12:10:37;101968.16;;;19.58;54.87
77263;BME280;66373;52.334;4.806;2023-12-14T12:13:06;101955.09;;;19.59;54.80
77263;BME280;66373;52.334;4.806;2023-12-14T12:15:34;101954.19;;;19.62;54.49
77263;BME280;66373;52.334;4.806;2023-12-14T12:18:05;101948.06;;;19.64;54.32
77263;BME280;66373;52.334;4.806;2023-12-14T12:20:33;101950.66;;;19.69;54.25
77263;BME280;66373;52.334;4.806;2023-12-14T12:23:02;101953.25;;;19.71;54.35
77263;BME280;66373;52.334;4.806;2023-12-14T12:25:29;101955.84;;;19.72;54.68
77263;BME280;66373;52.334;4.806;2023-12-14T12:27:58;101945.41;;;19.72;54.67
77263;BME280;66373;52.334;4.806;2023-12-14T12:30:26;101944.50;;;19.75;54.36
77263;BME280;66373;52.334;4.806;2023-12-14T12:32:53;101957.50;;;19.76;54.15
77263;BME280;66373;52.334;4.806;2023-12-14T12:35:21;101965.34;;;19.76;54.11
77263;BME280;66373;52.334;4.806;2023-12-14T12:37:49;101967.94;;;19.78;54.46
77263;BME280;66373;52.334;4.806;2023-12-14T12:40:21;101957.50;;;19.76;54.44
77263;BME280;66373;52.334;4.806;2023-12-14T12:42:49;101966.22;;;19.75;54.18
77263;BME280;66373;52.334;4.806;2023-12-14T12:45:17;101965.41;;;19.73;54.33
77263;BME280;66373;52.334;4.806;2023-12-14T12:47:44;101966.28;;;19.72;54.50
77263;BME280;66373;52.334;4.806;2023-12-14T12:50:12;101964.56;;;19.71;54.05
77263;BME280;66373;52.334;4.806;2023-12-14T12:52:39;101961.97;;;19.68;54.63
77263;BME280;66373;52.334;4.806;2023-12-14T12:55:08;101969.81;;;19.68;54.69